sensor_id;sensor_type;location;lat;lon;timestamp;temperature;humidity
72905;DHT22;61048;52.162;4.516;2023-09-07T00:00:35;25.60;57.70
72905;DHT22;61048;52.162;4.516;2023-09-07T00:03:02;25.60;57.90
72905;DHT22;61048;52.162;4.516;2023-09-07T00:05:31;25.60;58.00
72905;DHT22;61048;52.162;4.516;2023-09-07T00:07:58;25.60;58.00
72905;DHT22;61048;52.162;4.516;2023-09-07T00:10:26;25.60;57.90
72905;DHT22;61048;52.162;4.516;2023-09-07T00:12:54;25.60;58.00
72905;DHT22;61048;52.162;4.516;2023-09-07T00:15:22;25.60;58.00
72905;DHT22;61048;52.162;4.516;2023-09-07T00:17:51;25.60;57.90
72905;DHT22;61048;52.162;4.516;2023-09-07T00:20:18;25.60;58.10
72905;DHT22;61048;52.162;4.516;2023-09-07T00:22:47;25.60;58.10
72905;DHT22;61048;52.162;4.516;2023-09-07T00:25:14;25.60;58.00
72905;DHT22;61048;52.162;4.516;2023-09-07T00:27:42;25.60;58.10
72905;DHT22;61048;52.162;4.516;2023-09-07T00:30:10;25.60;58.10
72905;DHT22;61048;52.162;4.516;2023-09-07T00:32:37;25.60;58.20
72905;DHT22;61048;52.162;4.516;2023-09-07T00:35:06;25.60;58.10
72905;DHT22;61048;52.162;4.516;2023-09-07T00:37:33;25.60;58.10
72905;DHT22;61048;52.162;4.516;2023-09-07T00:40:00;25.60;58.20
72905;DHT22;61048;52.162;4.516;2023-09-07T00:42:29;25.60;58.20
72905;DHT22;61048;52.162;4.516;2023-09-07T00:44:57;25.60;58.20
72905;DHT22;61048;52.162;4.516;2023-09-07T00:47:24;25.60;58.20
72905;DHT22;61048;52.162;4.516;2023-09-07T00:49:51;25.60;58.30
72905;DHT22;61048;52.162;4.516;2023-09-07T00:52:18;25.50;58.30
72905;DHT22;61048;52.162;4.516;2023-09-07T00:54:46;25.50;58.20
72905;DHT22;61048;52.162;4.516;2023-09-07T00:57:13;25.50;58.10
72905;DHT22;61048;52.162;4.516;2023-09-07T00:59:39;25.50;58.10
72905;DHT22;61048;52.162;4.516;2023-09-07T01:02:08;25.50;58.20
72905;DHT22;61048;52.162;4.516;2023-09-07T01:04:35;25.50;58.10
72905;DHT22;61048;52.162;4.516;2023-09-07T01:07:04;25.50;58.10
72905;DHT22;61048;52.162;4.516;2023-09-07T01:09:35;25.40;58.00
72905;DHT22;61048;52.162;4.516;2023-09-07T01:12:04;25.40;58.20
72905;DHT22;61048;52.162;4.516;2023-09-07T01:14:33;25.40;58.20
72905;DHT22;61048;52.162;4.516;2023-09-07T01:17:00;25.40;58.20
72905;DHT22;61048;52.162;4.516;2023-09-07T01:19:28;25.40;58.20
72905;DHT22;61048;52.162;4.516;2023-09-07T01:21:57;25.40;58.10
72905;DHT22;61048;52.162;4.516;2023-09-07T01:24:25;25.30;58.10
72905;DHT22;61048;52.162;4.516;2023-09-07T01:26:53;25.30;58.10
72905;DHT22;61048;52.162;4.516;2023-09-07T01:29:20;25.30;57.90
72905;DHT22;61048;52.162;4.516;2023-09-07T01:31:47;25.20;58.10
72905;DHT22;61048;52.162;4.516;2023-09-07T01:34:14;25.20;58.20
72905;DHT22;61048;52.162;4.516;2023-09-07T01:36:41;25.20;58.20
72905;DHT22;61048;52.162;4.516;2023-09-07T01:39:10;25.20;58.10
72905;DHT22;61048;52.162;4.516;2023-09-07T01:41:37;25.20;58.10
72905;DHT22;61048;52.162;4.516;2023-09-07T01:44:04;25.20;58.10
72905;DHT22;61048;52.162;4.516;2023-09-07T01:46:31;25.10;58.10
72905;DHT22;61048;52.162;4.516;2023-09-07T01:48:58;25.10;58.20
72905;DHT22;61048;52.162;4.516;2023-09-07T01:51:25;25.10;58.10
72905;DHT22;61048;52.162;4.516;2023-09-07T01:53:53;25.00;58.20
72905;DHT22;61048;52.162;4.516;2023-09-07T01:56:21;25.00;58.20
72905;DHT22;61048;52.162;4.516;2023-09-07T01:58:48;25.00;58.20
72905;DHT22;61048;52.162;4.516;2023-09-07T02:01:22;25.00;58.30
72905;DHT22;61048;52.162;4.516;2023-09-07T02:03:49;25.00;58.30
72905;DHT22;61048;52.162;4.516;2023-09-07T02:06:16;25.10;58.30
72905;DHT22;61048;52.162;4.516;2023-09-07T02:08:43;25.00;58.30
72905;DHT22;61048;52.162;4.516;2023-09-07T02:11:10;25.00;58.30
72905;DHT22;61048;52.162;4.516;2023-09-07T02:13:41;25.00;58.30
72905;DHT22;61048;52.162;4.516;2023-09-07T02:16:08;25.00;58.30
72905;DHT22;61048;52.162;4.516;2023-09-07T02:18:36;25.00;58.10
72905;DHT22;61048;52.162;4.516;2023-09-07T02:21:03;25.00;58.00
72905;DHT22;61048;52.162;4.516;2023-09-07T02:23:30;25.00;58.00
72905;DHT22;61048;52.162;4.516;2023-09-07T02:25:57;25.00;58.30
72905;DHT22;61048;52.162;4.516;2023-09-07T02:28:25;24.90;58.20
72905;DHT22;61048;52.162;4.516;2023-09-07T02:30:53;24.90;58.20
72905;DHT22;61048;52.162;4.516;2023-09-07T02:33:20;24.80;58.20
72905;DHT22;61048;52.162;4.516;2023-09-07T02:35:48;24.80;58.40
72905;DHT22;61048;52.162;4.516;2023-09-07T02:38:15;24.70;58.40
72905;DHT22;61048;52.162;4.516;2023-09-07T02:40:42;24.50;58.50
72905;DHT22;61048;52.162;4.516;2023-09-07T02:43:09;24.40;58.90
72905;DHT22;61048;52.162;4.516;2023-09-07T02:45:37;24.40;59.00
72905;DHT22;61048;52.162;4.516;2023-09-07T02:48:06;24.40;59.00
72905;DHT22;61048;52.162;4.516;2023-09-07T02:50:34;24.40;59.00
72905;DHT22;61048;52.162;4.516;2023-09-07T02:53:01;24.40;59.00
72905;DHT22;61048;52.162;4.516;2023-09-07T02:55:29;24.50;59.00
72905;DHT22;61048;52.162;4.516;2023-09-07T02:57:57;24.50;58.90
72905;DHT22;61048;52.162;4.516;2023-09-07T03:00:25;24.50;58.80
72905;DHT22;61048;52.162;4.516;2023-09-07T03:02:51;24.60;58.80
72905;DHT22;61048;52.162;4.516;2023-09-07T03:05:20;24.50;58.70
72905;DHT22;61048;52.162;4.516;2023-09-07T03:07:47;24.50;58.60
72905;DHT22;61048;52.162;4.516;2023-09-07T03:10:14;24.40;58.90
72905;DHT22;61048;52.162;4.516;2023-09-07T03:12:41;24.30;59.10
72905;DHT22;61048;52.162;4.516;2023-09-07T03:15:08;24.30;59.20
72905;DHT22;61048;52.162;4.516;2023-09-07T03:17:35;24.30;59.20
72905;DHT22;61048;52.162;4.516;2023-09-07T03:20:02;24.20;59.10
72905;DHT22;61048;52.162;4.516;2023-09-07T03:22:40;24.20;59.30
72905;DHT22;61048;52.162;4.516;2023-09-07T03:25:08;24.20;59.30
72905;DHT22;61048;52.162;4.516;2023-09-07T03:27:36;24.20;59.40
72905;DHT22;61048;52.162;4.516;2023-09-07T03:30:04;24.10;59.20
72905;DHT22;61048;52.162;4.516;2023-09-07T03:32:31;23.90;59.60
72905;DHT22;61048;52.162;4.516;2023-09-07T03:34:59;23.80;60.00
72905;DHT22;61048;52.162;4.516;2023-09-07T03:37:26;23.80;60.10
72905;DHT22;61048;52.162;4.516;2023-09-07T03:39:55;23.80;60.20
72905;DHT22;61048;52.162;4.516;2023-09-07T03:42:22;23.80;60.20
72905;DHT22;61048;52.162;4.516;2023-09-07T03:44:49;23.80;59.90
72905;DHT22;61048;52.162;4.516;2023-09-07T03:47:16;23.80;59.90
72905;DHT22;61048;52.162;4.516;2023-09-07T03:49:43;23.90;59.90
72905;DHT22;61048;52.162;4.516;2023-09-07T03:52:11;23.90;60.00
72905;DHT22;61048;52.162;4.516;2023-09-07T03:54:37;23.90;59.80
72905;DHT22;61048;52.162;4.516;2023-09-07T03:57:06;23.90;59.80
72905;DHT22;61048;52.162;4.516;2023-09-07T03:59:33;23.90;59.80
72905;DHT22;61048;52.162;4.516;2023-09-07T04:02:00;23.90;59.80
72905;DHT22;61048;52.162;4.516;2023-09-07T04:04:26;24.00;59.80
72905;DHT22;61048;52.162;4.516;2023-09-07T04:06:53;24.00;59.80
72905;DHT22;61048;52.162;4.516;2023-09-07T04:09:20;24.00;59.70
72905;DHT22;61048;52.162;4.516;2023-09-07T04:11:47;24.00;59.70
72905;DHT22;61048;52.162;4.516;2023-09-07T04:14:16;24.00;59.80
72905;DHT22;61048;52.162;4.516;2023-09-07T04:16:42;24.10;59.80
72905;DHT22;61048;52.162;4.516;2023-09-07T04:19:09;24.10;59.70
72905;DHT22;61048;52.162;4.516;2023-09-07T04:21:37;24.10;59.70
72905;DHT22;61048;52.162;4.516;2023-09-07T04:24:05;24.10;59.70
72905;DHT22;61048;52.162;4.516;2023-09-07T04:26:33;24.10;59.70
72905;DHT22;61048;52.162;4.516;2023-09-07T04:29:00;24.10;59.70
72905;DHT22;61048;52.162;4.516;2023-09-07T04:31:28;24.20;59.70
72905;DHT22;61048;52.162;4.516;2023-09-07T04:33:55;24.20;59.60
72905;DHT22;61048;52.162;4.516;2023-09-07T04:36:22;24.20;59.40
72905;DHT22;61048;52.162;4.516;2023-09-07T04:38:49;24.20;59.40
72905;DHT22;61048;52.162;4.516;2023-09-07T04:41:15;24.20;59.40
72905;DHT22;61048;52.162;4.516;2023-09-07T04:43:43;24.20;59.30
72905;DHT22;61048;52.162;4.516;2023-09-07T04:46:10;24.20;59.20
72905;DHT22;61048;52.162;4.516;2023-09-07T04:48:39;24.20;59.20
72905;DHT22;61048;52.162;4.516;2023-09-07T04:51:08;24.20;59.30
72905;DHT22;61048;52.162;4.516;2023-09-07T04:53:36;24.20;59.20
72905;DHT22;61048;52.162;4.516;2023-09-07T04:56:04;24.20;59.20
72905;DHT22;61048;52.162;4.516;2023-09-07T04:58:31;24.10;59.20
72905;DHT22;61048;52.162;4.516;2023-09-07T05:01:02;24.20;59.10
72905;DHT22;61048;52.162;4.516;2023-09-07T05:03:29;24.10;59.10
72905;DHT22;61048;52.162;4.516;2023-09-07T05:05:57;24.10;59.00
72905;DHT22;61048;52.162;4.516;2023-09-07T05:08:24;24.10;59.00
72905;DHT22;61048;52.162;4.516;2023-09-07T05:10:55;24.10;59.00
72905;DHT22;61048;52.162;4.516;2023-09-07T05:13:23;24.20;59.40
72905;DHT22;61048;52.162;4.516;2023-09-07T05:15:51;24.20;59.50
72905;DHT22;61048;52.162;4.516;2023-09-07T05:18:18;24.20;59.50
72905;DHT22;61048;52.162;4.516;2023-09-07T05:20:45;24.20;59.90
72905;DHT22;61048;52.162;4.516;2023-09-07T05:23:15;24.20;59.60
72905;DHT22;61048;52.162;4.516;2023-09-07T05:25:45;24.20;59.50
72905;DHT22;61048;52.162;4.516;2023-09-07T05:28:13;24.20;59.70
72905;DHT22;61048;52.162;4.516;2023-09-07T05:30:40;24.20;59.60
72905;DHT22;61048;52.162;4.516;2023-09-07T05:33:08;24.20;59.50
72905;DHT22;61048;52.162;4.516;2023-09-07T05:35:35;24.20;59.50
72905;DHT22;61048;52.162;4.516;2023-09-07T05:38:03;24.20;59.50
72905;DHT22;61048;52.162;4.516;2023-09-07T05:40:35;24.20;59.70
72905;DHT22;61048;52.162;4.516;2023-09-07T05:43:03;24.20;59.50
72905;DHT22;61048;52.162;4.516;2023-09-07T05:45:30;24.20;59.70
72905;DHT22;61048;52.162;4.516;2023-09-07T05:47:57;24.20;59.70
72905;DHT22;61048;52.162;4.516;2023-09-07T05:50:24;24.20;59.40
72905;DHT22;61048;52.162;4.516;2023-09-07T05:52:51;24.30;59.30
72905;DHT22;61048;52.162;4.516;2023-09-07T05:55:18;24.20;59.30
72905;DHT22;61048;52.162;4.516;2023-09-07T05:57:46;24.20;59.20
72905;DHT22;61048;52.162;4.516;2023-09-07T06:00:15;24.20;59.00
72905;DHT22;61048;52.162;4.516;2023-09-07T06:02:42;24.30;59.20
72905;DHT22;61048;52.162;4.516;2023-09-07T06:05:10;24.30;59.40
72905;DHT22;61048;52.162;4.516;2023-09-07T06:07:37;24.40;59.30
72905;DHT22;61048;52.162;4.516;2023-09-07T06:10:04;24.40;59.70
72905;DHT22;61048;52.162;4.516;2023-09-07T06:12:32;24.50;61.60
72905;DHT22;61048;52.162;4.516;2023-09-07T06:15:01;24.60;61.20
72905;DHT22;61048;52.162;4.516;2023-09-07T06:17:28;24.70;61.30
72905;DHT22;61048;52.162;4.516;2023-09-07T06:19:56;24.70;61.30
72905;DHT22;61048;52.162;4.516;2023-09-07T06:22:22;24.80;61.20
72905;DHT22;61048;52.162;4.516;2023-09-07T06:24:49;24.90;61.00
72905;DHT22;61048;52.162;4.516;2023-09-07T06:27:17;24.90;61.30
72905;DHT22;61048;52.162;4.516;2023-09-07T06:29:43;25.00;60.90
72905;DHT22;61048;52.162;4.516;2023-09-07T06:32:12;25.00;61.00
72905;DHT22;61048;52.162;4.516;2023-09-07T06:34:39;25.10;60.80
72905;DHT22;61048;52.162;4.516;2023-09-07T06:37:06;25.10;60.70
72905;DHT22;61048;52.162;4.516;2023-09-07T06:39:34;25.10;60.70
72905;DHT22;61048;52.162;4.516;2023-09-07T06:42:01;25.20;60.60
72905;DHT22;61048;52.162;4.516;2023-09-07T06:44:29;25.20;60.50
72905;DHT22;61048;52.162;4.516;2023-09-07T06:46:56;25.30;60.40
72905;DHT22;61048;52.162;4.516;2023-09-07T06:49:24;25.30;60.50
72905;DHT22;61048;52.162;4.516;2023-09-07T06:51:51;25.30;60.50
72905;DHT22;61048;52.162;4.516;2023-09-07T06:54:18;25.40;60.30
72905;DHT22;61048;52.162;4.516;2023-09-07T06:56:45;25.40;60.40
72905;DHT22;61048;52.162;4.516;2023-09-07T06:59:12;25.50;60.90
72905;DHT22;61048;52.162;4.516;2023-09-07T07:01:38;25.60;60.40
72905;DHT22;61048;52.162;4.516;2023-09-07T07:04:05;25.60;61.20
72905;DHT22;61048;52.162;4.516;2023-09-07T07:06:34;25.70;60.90
72905;DHT22;61048;52.162;4.516;2023-09-07T07:09:01;25.70;61.00
72905;DHT22;61048;52.162;4.516;2023-09-07T07:11:28;25.80;60.80
72905;DHT22;61048;52.162;4.516;2023-09-07T07:13:55;25.80;60.70
72905;DHT22;61048;52.162;4.516;2023-09-07T07:16:22;25.80;60.70
72905;DHT22;61048;52.162;4.516;2023-09-07T07:18:49;25.90;60.20
72905;DHT22;61048;52.162;4.516;2023-09-07T07:21:15;25.90;60.30
72905;DHT22;61048;52.162;4.516;2023-09-07T07:23:44;25.90;60.00
72905;DHT22;61048;52.162;4.516;2023-09-07T07:26:11;26.00;59.90
72905;DHT22;61048;52.162;4.516;2023-09-07T07:28:38;26.00;59.60
72905;DHT22;61048;52.162;4.516;2023-09-07T07:31:08;26.00;59.40
72905;DHT22;61048;52.162;4.516;2023-09-07T07:33:35;26.10;59.60
72905;DHT22;61048;52.162;4.516;2023-09-07T07:36:03;26.10;59.30
72905;DHT22;61048;52.162;4.516;2023-09-07T07:38:30;26.10;59.00
72905;DHT22;61048;52.162;4.516;2023-09-07T07:40:58;26.20;59.20
72905;DHT22;61048;52.162;4.516;2023-09-07T07:43:25;26.20;58.70
72905;DHT22;61048;52.162;4.516;2023-09-07T07:45:53;26.20;58.80
72905;DHT22;61048;52.162;4.516;2023-09-07T07:48:20;26.30;58.70
72905;DHT22;61048;52.162;4.516;2023-09-07T07:50:47;26.30;58.20
72905;DHT22;61048;52.162;4.516;2023-09-07T07:53:14;26.30;57.80
72905;DHT22;61048;52.162;4.516;2023-09-07T07:55:41;26.40;58.10
72905;DHT22;61048;52.162;4.516;2023-09-07T07:58:10;26.40;57.70
72905;DHT22;61048;52.162;4.516;2023-09-07T08:00:37;26.40;58.00
72905;DHT22;61048;52.162;4.516;2023-09-07T08:03:05;26.50;57.70
72905;DHT22;61048;52.162;4.516;2023-09-07T08:05:33;26.50;57.20
72905;DHT22;61048;52.162;4.516;2023-09-07T08:08:00;26.50;57.80
72905;DHT22;61048;52.162;4.516;2023-09-07T08:10:28;26.50;57.30
72905;DHT22;61048;52.162;4.516;2023-09-07T08:12:56;26.60;57.40
72905;DHT22;61048;52.162;4.516;2023-09-07T08:15:24;26.60;56.70
72905;DHT22;61048;52.162;4.516;2023-09-07T08:17:51;26.60;56.60
72905;DHT22;61048;52.162;4.516;2023-09-07T08:20:18;26.60;57.10
72905;DHT22;61048;52.162;4.516;2023-09-07T08:22:45;26.70;56.60
72905;DHT22;61048;52.162;4.516;2023-09-07T08:25:13;26.70;57.00
72905;DHT22;61048;52.162;4.516;2023-09-07T08:27:40;26.70;56.90
72905;DHT22;61048;52.162;4.516;2023-09-07T08:30:12;26.70;56.90
72905;DHT22;61048;52.162;4.516;2023-09-07T08:32:40;26.80;56.90
72905;DHT22;61048;52.162;4.516;2023-09-07T08:35:09;26.80;56.50
72905;DHT22;61048;52.162;4.516;2023-09-07T08:37:38;26.80;56.70
72905;DHT22;61048;52.162;4.516;2023-09-07T08:40:06;26.80;56.70
72905;DHT22;61048;52.162;4.516;2023-09-07T08:42:35;26.90;56.40
72905;DHT22;61048;52.162;4.516;2023-09-07T08:45:03;26.90;56.20
72905;DHT22;61048;52.162;4.516;2023-09-07T08:47:33;26.90;56.30
72905;DHT22;61048;52.162;4.516;2023-09-07T08:50:04;26.90;56.30
72905;DHT22;61048;52.162;4.516;2023-09-07T08:52:33;26.90;56.00
72905;DHT22;61048;52.162;4.516;2023-09-07T08:55:00;27.00;55.60
72905;DHT22;61048;52.162;4.516;2023-09-07T08:57:30;27.00;55.50
72905;DHT22;61048;52.162;4.516;2023-09-07T08:59:58;27.00;55.00
72905;DHT22;61048;52.162;4.516;2023-09-07T09:02:25;27.10;54.90
72905;DHT22;61048;52.162;4.516;2023-09-07T09:04:52;27.10;54.40
72905;DHT22;61048;52.162;4.516;2023-09-07T09:07:21;27.10;54.40
72905;DHT22;61048;52.162;4.516;2023-09-07T09:09:48;27.10;54.50
72905;DHT22;61048;52.162;4.516;2023-09-07T09:12:15;27.10;54.20
72905;DHT22;61048;52.162;4.516;2023-09-07T09:14:43;27.20;53.70
72905;DHT22;61048;52.162;4.516;2023-09-07T09:17:14;27.20;53.10
72905;DHT22;61048;52.162;4.516;2023-09-07T09:19:42;27.20;53.20
72905;DHT22;61048;52.162;4.516;2023-09-07T09:22:09;27.20;52.60
72905;DHT22;61048;52.162;4.516;2023-09-07T09:24:38;27.20;53.20
72905;DHT22;61048;52.162;4.516;2023-09-07T09:27:05;27.20;53.40
72905;DHT22;61048;52.162;4.516;2023-09-07T09:29:35;27.20;53.20
72905;DHT22;61048;52.162;4.516;2023-09-07T09:32:03;27.20;53.10
72905;DHT22;61048;52.162;4.516;2023-09-07T09:34:32;27.20;53.40
72905;DHT22;61048;52.162;4.516;2023-09-07T09:37:00;27.20;53.50
72905;DHT22;61048;52.162;4.516;2023-09-07T09:39:27;27.20;52.70
72905;DHT22;61048;52.162;4.516;2023-09-07T09:41:56;27.20;52.90
72905;DHT22;61048;52.162;4.516;2023-09-07T09:44:24;27.20;52.90
72905;DHT22;61048;52.162;4.516;2023-09-07T09:46:52;27.20;52.80
72905;DHT22;61048;52.162;4.516;2023-09-07T09:49:21;27.20;53.10
72905;DHT22;61048;52.162;4.516;2023-09-07T09:51:49;27.20;53.10
72905;DHT22;61048;52.162;4.516;2023-09-07T09:54:17;27.20;53.30
72905;DHT22;61048;52.162;4.516;2023-09-07T09:56:44;27.20;52.80
72905;DHT22;61048;52.162;4.516;2023-09-07T09:59:14;27.30;53.00
72905;DHT22;61048;52.162;4.516;2023-09-07T10:01:43;27.30;53.10
72905;DHT22;61048;52.162;4.516;2023-09-07T10:04:12;27.20;53.10
72905;DHT22;61048;52.162;4.516;2023-09-07T10:06:50;27.20;53.20
72905;DHT22;61048;52.162;4.516;2023-09-07T10:09:17;27.20;53.30
72905;DHT22;61048;52.162;4.516;2023-09-07T10:11:51;27.20;53.40
72905;DHT22;61048;52.162;4.516;2023-09-07T10:14:20;27.30;52.30
72905;DHT22;61048;52.162;4.516;2023-09-07T10:16:48;27.30;52.30
72905;DHT22;61048;52.162;4.516;2023-09-07T10:19:17;27.30;52.10
72905;DHT22;61048;52.162;4.516;2023-09-07T10:21:45;27.30;52.60
72905;DHT22;61048;52.162;4.516;2023-09-07T10:24:23;27.30;52.30
72905;DHT22;61048;52.162;4.516;2023-09-07T10:26:56;27.40;51.90
72905;DHT22;61048;52.162;4.516;2023-09-07T10:29:25;27.40;52.30
72905;DHT22;61048;52.162;4.516;2023-09-07T10:31:52;27.30;52.60
72905;DHT22;61048;52.162;4.516;2023-09-07T10:34:19;27.40;52.60
72905;DHT22;61048;52.162;4.516;2023-09-07T10:36:48;27.40;52.20
72905;DHT22;61048;52.162;4.516;2023-09-07T10:39:18;27.40;52.40
72905;DHT22;61048;52.162;4.516;2023-09-07T10:41:45;27.40;52.40
72905;DHT22;61048;52.162;4.516;2023-09-07T10:44:13;27.40;52.50
72905;DHT22;61048;52.162;4.516;2023-09-07T10:46:41;27.40;52.40
72905;DHT22;61048;52.162;4.516;2023-09-07T10:49:11;27.40;52.50
72905;DHT22;61048;52.162;4.516;2023-09-07T10:51:43;27.40;51.60
72905;DHT22;61048;52.162;4.516;2023-09-07T10:54:14;27.40;52.00
72905;DHT22;61048;52.162;4.516;2023-09-07T10:56:43;27.50;51.30
72905;DHT22;61048;52.162;4.516;2023-09-07T10:59:11;27.50;51.00
72905;DHT22;61048;52.162;4.516;2023-09-07T11:01:38;27.50;51.30
72905;DHT22;61048;52.162;4.516;2023-09-07T11:04:06;27.50;51.50
72905;DHT22;61048;52.162;4.516;2023-09-07T11:06:37;27.50;50.80
72905;DHT22;61048;52.162;4.516;2023-09-07T11:09:04;27.50;51.50
72905;DHT22;61048;52.162;4.516;2023-09-07T11:11:35;27.50;51.20
72905;DHT22;61048;52.162;4.516;2023-09-07T11:14:03;27.50;51.50
72905;DHT22;61048;52.162;4.516;2023-09-07T11:16:30;27.50;51.20
72905;DHT22;61048;52.162;4.516;2023-09-07T11:18:59;27.50;50.50
72905;DHT22;61048;52.162;4.516;2023-09-07T11:21:31;27.50;51.10
72905;DHT22;61048;52.162;4.516;2023-09-07T11:24:00;27.50;51.00
72905;DHT22;61048;52.162;4.516;2023-09-07T11:26:40;27.50;51.20
72905;DHT22;61048;52.162;4.516;2023-09-07T11:29:06;27.50;51.20
72905;DHT22;61048;52.162;4.516;2023-09-07T11:31:33;27.60;50.10
72905;DHT22;61048;52.162;4.516;2023-09-07T11:34:00;27.60;49.80
72905;DHT22;61048;52.162;4.516;2023-09-07T11:36:27;27.60;50.00
72905;DHT22;61048;52.162;4.516;2023-09-07T11:38:55;27.60;49.60
72905;DHT22;61048;52.162;4.516;2023-09-07T11:41:23;27.60;49.90
72905;DHT22;61048;52.162;4.516;2023-09-07T11:43:50;27.60;49.30
72905;DHT22;61048;52.162;4.516;2023-09-07T11:46:17;27.70;49.50
72905;DHT22;61048;52.162;4.516;2023-09-07T11:48:43;27.60;50.00
72905;DHT22;61048;52.162;4.516;2023-09-07T11:51:10;27.60;50.50
72905;DHT22;61048;52.162;4.516;2023-09-07T11:53:37;27.60;50.80
72905;DHT22;61048;52.162;4.516;2023-09-07T11:56:05;27.60;50.90
72905;DHT22;61048;52.162;4.516;2023-09-07T11:58:32;27.60;51.10
72905;DHT22;61048;52.162;4.516;2023-09-07T12:00:59;27.60;51.30
72905;DHT22;61048;52.162;4.516;2023-09-07T12:03:27;27.60;51.30
72905;DHT22;61048;52.162;4.516;2023-09-07T12:05:55;27.60;51.20
72905;DHT22;61048;52.162;4.516;2023-09-07T12:08:23;27.60;51.30
72905;DHT22;61048;52.162;4.516;2023-09-07T12:10:50;27.60;51.40
72905;DHT22;61048;52.162;4.516;2023-09-07T12:13:18;27.60;51.40
72905;DHT22;61048;52.162;4.516;2023-09-07T12:15:45;27.60;51.40
72905;DHT22;61048;52.162;4.516;2023-09-07T12:18:13;27.60;51.40
72905;DHT22;61048;52.162;4.516;2023-09-07T12:20:40;27.60;51.40
72905;DHT22;61048;52.162;4.516;2023-09-07T12:23:07;27.60;51.30
72905;DHT22;61048;52.162;4.516;2023-09-07T12:25:35;27.60;51.30
72905;DHT22;61048;52.162;4.516;2023-09-07T12:28:02;27.60;51.30
72905;DHT22;61048;52.162;4.516;2023-09-07T12:30:30;27.60;51.10
72905;DHT22;61048;52.162;4.516;2023-09-07T12:32:57;27.60;51.10
72905;DHT22;61048;52.162;4.516;2023-09-07T12:35:24;27.60;51.00
72905;DHT22;61048;52.162;4.516;2023-09-07T12:37:51;27.60;50.90
72905;DHT22;61048;52.162;4.516;2023-09-07T12:40:18;27.60;51.00
72905;DHT22;61048;52.162;4.516;2023-09-07T12:42:45;27.60;51.00
72905;DHT22;61048;52.162;4.516;2023-09-07T12:45:13;27.60;50.90
72905;DHT22;61048;52.162;4.516;2023-09-07T12:47:41;27.60;50.90
72905;DHT22;61048;52.162;4.516;2023-09-07T12:50:08;27.70;50.90
72905;DHT22;61048;52.162;4.516;2023-09-07T12:52:35;27.60;50.80
72905;DHT22;61048;52.162;4.516;2023-09-07T12:55:03;27.70;50.70
72905;DHT22;61048;52.162;4.516;2023-09-07T12:57:30;27.70;50.60
72905;DHT22;61048;52.162;4.516;2023-09-07T12:59:58;27.70;50.60
72905;DHT22;61048;52.162;4.516;2023-09-07T13:02:25;27.70;50.50
72905;DHT22;61048;52.162;4.516;2023-09-07T13:04:54;27.70;50.40
72905;DHT22;61048;52.162;4.516;2023-09-07T13:07:22;27.70;50.50
72905;DHT22;61048;52.162;4.516;2023-09-07T13:09:49;27.70;50.50
72905;DHT22;61048;52.162;4.516;2023-09-07T13:12:16;27.70;50.40
72905;DHT22;61048;52.162;4.516;2023-09-07T13:14:42;27.70;50.30
72905;DHT22;61048;52.162;4.516;2023-09-07T13:17:13;27.70;50.10
72905;DHT22;61048;52.162;4.516;2023-09-07T13:19:40;27.70;50.30
72905;DHT22;61048;52.162;4.516;2023-09-07T13:22:09;27.80;50.00
72905;DHT22;61048;52.162;4.516;2023-09-07T13:24:36;27.80;49.80
72905;DHT22;61048;52.162;4.516;2023-09-07T13:27:03;27.80;50.00
72905;DHT22;61048;52.162;4.516;2023-09-07T13:29:31;27.80;50.10
72905;DHT22;61048;52.162;4.516;2023-09-07T13:31:58;27.80;50.10
72905;DHT22;61048;52.162;4.516;2023-09-07T13:34:25;27.80;50.10
72905;DHT22;61048;52.162;4.516;2023-09-07T13:36:52;27.80;50.00
72905;DHT22;61048;52.162;4.516;2023-09-07T13:39:20;27.80;49.60
72905;DHT22;61048;52.162;4.516;2023-09-07T13:41:47;27.80;49.60
72905;DHT22;61048;52.162;4.516;2023-09-07T13:44:15;27.80;49.80
72905;DHT22;61048;52.162;4.516;2023-09-07T13:46:44;27.80;49.40
72905;DHT22;61048;52.162;4.516;2023-09-07T13:49:13;27.80;49.60
72905;DHT22;61048;52.162;4.516;2023-09-07T13:51:40;27.90;49.70
72905;DHT22;61048;52.162;4.516;2023-09-07T13:54:08;27.90;49.10
72905;DHT22;61048;52.162;4.516;2023-09-07T13:56:36;27.90;49.70
72905;DHT22;61048;52.162;4.516;2023-09-07T13:59:04;27.90;49.40
72905;DHT22;61048;52.162;4.516;2023-09-07T14:01:31;27.90;49.30
72905;DHT22;61048;52.162;4.516;2023-09-07T14:03:58;27.90;49.50
72905;DHT22;61048;52.162;4.516;2023-09-07T14:06:25;27.90;49.70
72905;DHT22;61048;52.162;4.516;2023-09-07T14:08:52;27.90;49.50
72905;DHT22;61048;52.162;4.516;2023-09-07T14:11:19;27.90;49.40
72905;DHT22;61048;52.162;4.516;2023-09-07T14:13:48;27.90;49.10
72905;DHT22;61048;52.162;4.516;2023-09-07T14:16:17;28.00;49.30
72905;DHT22;61048;52.162;4.516;2023-09-07T14:18:45;28.00;49.30
72905;DHT22;61048;52.162;4.516;2023-09-07T14:21:14;28.00;49.30
72905;DHT22;61048;52.162;4.516;2023-09-07T14:23:41;28.00;49.40
72905;DHT22;61048;52.162;4.516;2023-09-07T14:26:08;28.00;49.50
72905;DHT22;61048;52.162;4.516;2023-09-07T14:28:35;28.00;49.60
72905;DHT22;61048;52.162;4.516;2023-09-07T14:31:04;28.00;49.40
72905;DHT22;61048;52.162;4.516;2023-09-07T14:33:33;28.00;49.40
72905;DHT22;61048;52.162;4.516;2023-09-07T14:36:02;28.00;49.20
72905;DHT22;61048;52.162;4.516;2023-09-07T14:38:29;28.10;48.90
72905;DHT22;61048;52.162;4.516;2023-09-07T14:40:58;28.10;48.40
72905;DHT22;61048;52.162;4.516;2023-09-07T14:43:25;28.10;48.90
72905;DHT22;61048;52.162;4.516;2023-09-07T14:45:52;28.10;48.90
72905;DHT22;61048;52.162;4.516;2023-09-07T14:48:21;28.10;48.90
72905;DHT22;61048;52.162;4.516;2023-09-07T14:50:48;28.10;48.80
72905;DHT22;61048;52.162;4.516;2023-09-07T14:53:15;28.10;48.40
72905;DHT22;61048;52.162;4.516;2023-09-07T14:55:43;28.10;48.70
72905;DHT22;61048;52.162;4.516;2023-09-07T14:58:10;28.10;48.80
72905;DHT22;61048;52.162;4.516;2023-09-07T15:00:37;28.10;48.80
72905;DHT22;61048;52.162;4.516;2023-09-07T15:03:04;28.10;48.40
72905;DHT22;61048;52.162;4.516;2023-09-07T15:05:33;28.10;48.60
72905;DHT22;61048;52.162;4.516;2023-09-07T15:08:00;28.10;48.80
72905;DHT22;61048;52.162;4.516;2023-09-07T15:10:28;28.20;48.80
72905;DHT22;61048;52.162;4.516;2023-09-07T15:12:55;28.20;48.90
72905;DHT22;61048;52.162;4.516;2023-09-07T15:15:22;28.20;48.80
72905;DHT22;61048;52.162;4.516;2023-09-07T15:17:49;28.20;48.80
72905;DHT22;61048;52.162;4.516;2023-09-07T15:20:16;28.20;48.90
72905;DHT22;61048;52.162;4.516;2023-09-07T15:22:44;28.20;49.00
72905;DHT22;61048;52.162;4.516;2023-09-07T15:25:11;28.20;48.90
72905;DHT22;61048;52.162;4.516;2023-09-07T15:27:38;28.30;49.10
72905;DHT22;61048;52.162;4.516;2023-09-07T15:30:06;28.30;49.00
72905;DHT22;61048;52.162;4.516;2023-09-07T15:32:33;28.30;48.90